Weather reports worldwide

Advertisment
Mende, France (7554): temperature & dewpoint: 27.06.2020 17:00:00 - 03.07.2020 17:00:00 (CEST)Mende, France (7554): temperature 5cm: 27.06.2020 17:00:00 - 03.07.2020 17:00:00 (CEST)Mende, France (7554): temperature -20cm & temperature -100cm: 27.06.2020 17:00:00 - 03.07.2020 17:00:00 (CEST)Mende, France (7554): wind speed & gusts: 27.06.2020 17:00:00 - 03.07.2020 17:00:00 (CEST)Mende, France (7554): wind direction: 27.06.2020 17:00:00 - 03.07.2020 17:00:00 (CEST)Mende, France (7554): visibility: 27.06.2020 17:00:00 - 03.07.2020 17:00:00 (CEST)Mende, France (7554): sunshine duration: 27.06.2020 17:00:00 - 03.07.2020 17:00:00 (CEST)Mende, France (7554): precipitation: 27.06.2020 17:00:00 - 03.07.2020 17:00:00 (CEST)
Date & Time tt [°C] td [°C] tt 5cm [°C] tt -20cm [°C] tt -100cm [°C] ff [km/h] ff [kn] fx [km/h] fx [kn] dd vv [km] sd [min] rr [mm]
03.07.2020 17:00:00 19,2 5,6 20,5 20,1 16,2 24 13 48 26 NNW 20 20 0,0
03.07.2020 16:00:00 19,9 7,3 22,2 20,1 16,3 20 11 50 27 NNW 20 33 0,0
03.07.2020 15:00:00 19,1 5,9 19,7 20,2 16,3 27 15 45 24 NNW 20 21 0,0
03.07.2020 14:00:00 18,3 4,5 19,3 20,2 16,2 21 11 45 24 N 20 31 0,0
03.07.2020 13:00:00 18,0 4,9 19,6 20,4 16,3 18 10 46 25 NNW 20 30 0,0
03.07.2020 12:00:00 16,8 4,1 17,2 20,5 16,2 27 15 43 23 N 20 27 0,0
03.07.2020 11:00:00 16,2 5,8 15,9 20,6 16,2 16 9 37 20 N 20 31 0,0
03.07.2020 10:00:00 14,2 7,0 15,6 20,8 16,2 16 9 39 21 N 20 36 0,0
03.07.2020 09:00:00 12,9 7,8 13,5 20,9 16,2 15 8 27 14 N 20 42 0,0
03.07.2020 08:00:00 12,0 8,3 9,6 21,0 16,2 10 5 21 12 NW 20 54 0,0
03.07.2020 07:00:00 9,9 8,2 7,5 21,1 16,3 9 5 17 9 NW 20 6 0,0
03.07.2020 06:00:00 9,5 7,4 7,8 21,2 16,2 8 5 14 8 WNW 20 0 0,0
03.07.2020 05:00:00 10,3 8,4 8,1 21,3 16,2 8 4 15 8 W 20 0 0,0
03.07.2020 04:00:00 10,0 7,9 8,4 21,4 16,3 9 5 23 13 W 20 0 0,0
03.07.2020 03:00:00 10,4 8,2 8,7 21,3 16,2 13 7 20 11 NW 20 0 0,0
03.07.2020 02:00:00 11,7 8,7 10,0 21,3 16,3 11 6 34 18 WNW 20 0 0,0
03.07.2020 01:00:00 12,1 8,8 10,6 21,3 16,2 9 5 19 11 WNW 20 0 0,0
03.07.2020 00:00:00 13,5 9,3 12,6 21,2 16,2 8 5 26 14 WNW 20 0 0,0
02.07.2020 23:00:00 13,7 8,9 12,3 21,0 16,2 10 5 29 16 WNW 20 0 0,0
02.07.2020 22:00:00 14,7 9,1 13,6 20,9 16,2 15 8 30 16 WNW 20 9 0,0
02.07.2020 21:00:00 17,6 10,2 17,5 20,8 16,2 17 9 35 19 NW 20 34 0,0
02.07.2020 20:00:00 19,4 10,7 20,1 20,6 16,2 14 8 35 19 WNW 20 33 0,0
02.07.2020 19:00:00 22,2 11,6 24,7 20,5 16,2 20 11 37 20 NW 20 42 0,0
02.07.2020 18:00:00 23,5 11,2 27,2 20,4 16,2 19 10 37 20 WNW 20 27 0,0
02.07.2020 17:00:00 23,8 12,4 25,9 20,4 16,2 21 12 36 19 NNW 20 23 0,0
02.07.2020 16:00:00 24,6 11,2 27,5 20,4 16,2 16 9 35 19 WNW 20 33 0,0
02.07.2020 15:00:00 25,0 12,6 26,5 20,4 16,2 17 9 34 18 WNW 20 28 0,0
02.07.2020 14:00:00 23,2 13,9 26,5 20,4 16,2 11 6 28 15 W 20 20 0,0
02.07.2020 13:00:00 24,0 13,5 26,0 20,5 16,1 10 6 19 11 WSW 20 40 0,0
02.07.2020 12:00:00 21,7 12,3 24,5 20,6 16,1 10 5 24 13 WSW 19 15 0,0
02.07.2020 11:00:00 21,0 12,2 20,9 20,7 16,2 6 3 22 12 NW 14 41 0,0
02.07.2020 10:00:00 20,2 12,7 20,3 20,8 16,2 9 5 28 15 NNW 18 55 0,0
02.07.2020 09:00:00 18,5 13,8 18,0 20,8 16,1 5 3 13 7 NNW 17 58 0,0
02.07.2020 08:00:00 15,6 14,5 15,0 20,9 16,1 4 2 8 4 W 17 7 0,0
02.07.2020 07:00:00 14,4 13,1 14,0 21,0 16,1 2 1 8 4 SSW 19 6 0,0
02.07.2020 06:00:00 15,0 14,2 15,0 21,1 16,1 3 2 6 3 WSW 8 0 0,0
02.07.2020 05:00:00 14,8 14,0 12,4 21,2 16,1 3 2 6 4 WNW 7 0 0,0
02.07.2020 04:00:00 14,4 13,3 12,4 21,2 16,1 4 2 9 5 SSW 10 0 0,0
02.07.2020 03:00:00 14,4 13,1 11,9 21,3 16,1 4 2 8 4 W 12 0 0,0
02.07.2020 02:00:00 15,0 12,9 13,8 21,2 16,1 0 0 11 6 N 20 0 0,0
02.07.2020 01:00:00 15,4 12,3 11,8 21,2 16,1 4 2 11 6 NNE 8 0 0,0
02.07.2020 00:00:00 16,3 12,1 11,8 21,1 16,1 9 5 29 16 W 20 0 0,0
01.07.2020 23:00:00 16,2 11,6 12,4 21,0 16,1 7 4 23 12 W 20 0 0,0
01.07.2020 22:00:00 17,8 11,4 15,8 20,9 16,1 13 7 22 12 N 20 0 0,0
01.07.2020 21:00:00 19,7 12,2 - - - 11 6 22 12 NW 20 - 0,0
01.07.2020 20:00:00 22,1 14,2 22,8 20,7 16,1 9 5 18 10 W 20 0 0,0
01.07.2020 19:00:00 23,2 14,2 24,4 20,6 16,0 7 4 23 13 WNW 20 8 0,0
01.07.2020 18:00:00 24,3 14,1 28,3 20,6 16,1 15 8 39 21 WNW 20 23 0,0
01.07.2020 17:00:00 25,2 14,3 26,8 20,5 16,1 20 11 39 21 W 20 29 0,0
01.07.2020 16:00:00 25,0 15,0 27,7 20,5 16,1 14 7 32 17 W 20 0 0,0
01.07.2020 15:00:00 25,8 14,9 28,4 20,5 16,1 13 7 22 12 W 20 1 0,0
01.07.2020 14:00:00 27,7 14,3 34,5 20,5 16,0 13 7 26 14 NW 20 47 0,0
01.07.2020 13:00:00 25,5 14,6 28,4 20,7 16,1 13 7 22 12 W 20 8 0,0
01.07.2020 12:00:00 25,3 12,8 29,8 20,7 16,0 10 5 20 11 W 20 43 0,0
01.07.2020 11:00:00 24,4 13,0 26,0 20,8 16,0 9 5 18 10 WSW 20 60 0,0
01.07.2020 10:00:00 22,7 12,6 19,2 21,0 16,1 2 1 10 5 S 20 60 0,0
01.07.2020 09:00:00 18,4 12,2 13,3 21,1 16,0 8 4 11 6 SE 20 60 0,0
01.07.2020 08:00:00 14,4 10,8 12,2 21,2 16,0 8 4 13 7 ESE 20 0 0,0
01.07.2020 07:00:00 13,0 10,4 11,5 21,3 16,0 9 5 15 8 ESE 20 4 0,0
01.07.2020 06:00:00 13,3 10,3 11,2 21,4 16,0 9 5 15 8 ESE 20 0 0,0
01.07.2020 05:00:00 12,9 10,4 11,1 21,4 16,1 11 6 16 9 ESE 20 0 0,0
01.07.2020 04:00:00 13,3 10,8 11,0 21,4 16,0 8 4 11 6 E 20 0 0,0
01.07.2020 03:00:00 14,2 11,0 10,4 21,4 16,0 8 4 10 6 ESE 20 0 0,0
01.07.2020 02:00:00 14,5 11,1 11,2 21,3 16,0 10 5 13 7 SE 20 0 0,0
01.07.2020 01:00:00 15,6 11,2 11,2 21,2 16,0 3 2 10 5 SE 19 0 0,0
01.07.2020 00:00:00 17,4 11,4 12,0 21,0 16,0 5 3 10 5 E 20 0 0,0
30.06.2020 23:00:00 18,2 11,5 11,9 20,9 16,0 4 2 6 4 E 20 0 0,0
30.06.2020 22:00:00 18,6 11,7 13,0 20,7 16,0 2 1 13 7 WNW 20 5 0,0
30.06.2020 21:00:00 22,1 12,1 19,5 20,4 16,0 9 5 16 9 W 20 60 0,0
30.06.2020 20:00:00 25,7 12,5 26,4 20,2 16,0 9 5 20 11 W 20 60 0,0
30.06.2020 19:00:00 27,1 13,1 32,8 20,0 16,0 9 5 21 11 WSW 20 60 0,0
30.06.2020 18:00:00 26,6 13,0 36,9 19,9 16,0 11 6 20 11 SSW 20 60 0,0
30.06.2020 17:00:00 27,4 12,6 39,3 19,8 16,0 11 6 26 14 SW 20 60 0,0
30.06.2020 16:00:00 26,7 13,1 39,0 19,8 16,0 10 5 27 14 WSW 20 60 0,0
30.06.2020 15:00:00 26,2 13,0 36,8 19,8 15,9 11 6 23 13 SW 20 60 0,0
30.06.2020 14:00:00 24,8 11,7 35,2 19,8 15,9 12 7 24 13 SSW 20 60 0,0
30.06.2020 13:00:00 23,7 10,7 32,7 20,0 15,9 10 5 21 11 W 19 60 0,0
30.06.2020 12:00:00 21,4 11,1 28,1 20,1 16,1 10 5 19 11 SW 20 60 0,0
30.06.2020 11:00:00 19,3 10,6 20,6 20,2 15,9 8 4 15 8 SW 20 60 0,0
30.06.2020 10:00:00 16,8 9,5 15,0 20,4 16,0 6 3 11 6 WSW 19 60 0,0
30.06.2020 09:00:00 14,2 8,8 10,8 20,5 15,9 4 2 7 4 SW 20 60 0,0
30.06.2020 08:00:00 11,6 7,5 7,2 20,7 15,9 0 0 11 6 N 20 60 0,0
30.06.2020 07:00:00 8,5 6,6 6,6 20,8 15,9 6 3 10 5 ESE 20 7 0,0
30.06.2020 06:00:00 8,5 6,6 6,6 20,9 15,9 6 4 11 6 SE 20 0 0,0
30.06.2020 05:00:00 9,4 7,3 6,5 21,0 15,9 6 4 9 5 ESE 20 0 0,0
30.06.2020 04:00:00 10,0 7,8 5,7 21,1 15,9 4 2 9 5 E 20 0 0,0
30.06.2020 03:00:00 10,8 7,8 5,7 21,1 15,9 2 1 5 3 SSE 20 0 0,0
30.06.2020 02:00:00 11,2 7,9 6,3 21,1 15,9 4 2 11 6 NNE 20 0 0,0
30.06.2020 01:00:00 11,7 7,8 7,3 21,0 15,9 6 4 20 11 SW 20 0 0,0
30.06.2020 00:00:00 12,7 8,2 8,2 21,0 15,9 13 7 21 11 WNW 20 0 0,0
29.06.2020 23:00:00 13,0 8,5 8,3 20,8 15,9 8 4 14 8 NNW 20 0 0,0
29.06.2020 22:00:00 14,7 7,7 9,8 20,7 15,8 9 5 22 12 WNW 20 5 0,0
29.06.2020 21:00:00 18,7 7,5 15,9 20,6 15,8 10 5 24 13 WNW 20 60 0,0
29.06.2020 20:00:00 22,2 8,0 22,6 20,5 15,8 14 8 28 15 WNW 20 60 0,0
29.06.2020 19:00:00 23,3 6,5 28,4 20,4 15,8 20 11 32 17 NW 20 60 0,0
29.06.2020 18:00:00 24,1 7,7 33,9 20,4 15,8 16 9 32 17 W 20 60 0,0
29.06.2020 17:00:00 23,8 9,8 32,2 20,4 15,9 13 7 31 17 W 20 57 0,0
29.06.2020 16:00:00 22,4 12,9 32,7 20,4 15,7 16 9 34 19 W 20 60 0,0
29.06.2020 15:00:00 21,4 13,6 23,9 20,5 15,8 15 8 34 18 WSW 20 34 0,0
29.06.2020 14:00:00 18,9 13,7 22,5 20,6 15,8 13 7 26 14 WSW 20 2 0,0
29.06.2020 13:00:00 18,9 13,3 21,0 20,7 15,8 12 7 28 15 WSW 20 5 0,0
29.06.2020 12:00:00 17,6 13,1 19,5 20,8 15,8 14 8 27 14 SW 20 3 0,0
29.06.2020 11:00:00 17,4 14,1 18,9 20,9 15,8 13 7 27 15 WSW 20 4 0,0
29.06.2020 10:00:00 17,4 13,3 16,8 21,0 15,7 11 6 28 15 W 20 23 0,0
29.06.2020 09:00:00 15,2 14,2 15,7 21,1 15,7 9 5 16 8 W 17 0 0,0
29.06.2020 08:00:00 14,5 13,5 14,4 21,2 15,7 6 3 11 6 W 20 0 0,0
29.06.2020 07:00:00 13,9 13,1 13,2 21,3 15,7 0 0 6 4 N 18 0 0,0
29.06.2020 06:00:00 13,6 12,8 11,3 21,4 15,7 3 1 8 4 NNW 13 0 0,0
29.06.2020 05:00:00 13,9 12,9 12,8 21,4 15,7 4 2 11 6 WSW 11 0 0,0
29.06.2020 04:00:00 14,2 13,2 12,3 21,5 15,7 5 3 14 7 SW 16 0 0,0
29.06.2020 03:00:00 14,0 12,9 10,3 21,5 15,7 8 4 11 6 W 20 0 0,0
29.06.2020 02:00:00 14,5 13,0 11,4 21,4 15,7 5 3 13 7 W 19 0 0,0
29.06.2020 01:00:00 15,2 13,4 12,5 21,4 15,7 6 3 16 9 W 20 0 0,0
29.06.2020 00:00:00 16,4 14,4 14,8 21,3 15,7 10 5 18 10 W 20 0 0,0
28.06.2020 23:00:00 17,5 14,8 16,2 21,1 15,6 7 4 15 8 WSW 20 0 0,0
28.06.2020 22:00:00 18,7 15,0 16,9 20,9 15,7 9 5 18 10 W 20 0 0,0
28.06.2020 21:00:00 20,5 15,1 19,3 20,8 15,6 10 5 23 12 W 20 15 0,0
28.06.2020 20:00:00 22,9 14,7 22,7 20,6 15,7 11 6 24 13 W 20 40 0,0
28.06.2020 19:00:00 24,1 13,9 25,6 20,4 15,7 12 7 27 15 W 20 31 0,0
28.06.2020 18:00:00 25,4 13,3 30,6 20,3 15,6 14 7 31 17 W 20 44 0,0
28.06.2020 17:00:00 26,4 14,8 31,3 20,2 15,6 14 8 31 17 WNW 20 49 0,0
28.06.2020 16:00:00 26,4 13,8 30,7 20,1 15,6 14 8 26 14 WNW 20 27 0,0
28.06.2020 15:00:00 25,8 14,9 32,4 20,1 15,6 11 6 24 13 SW 20 46 0,0
28.06.2020 14:00:00 25,3 13,5 33,4 20,2 15,6 13 7 32 18 W 20 49 0,0
28.06.2020 13:00:00 25,1 13,9 29,5 20,3 15,6 13 7 26 14 WSW 20 49 0,0
28.06.2020 12:00:00 22,9 13,7 26,8 20,4 15,6 8 5 18 10 SSW 20 57 0,0
28.06.2020 11:00:00 21,2 14,4 22,8 20,5 15,6 6 4 13 7 W 20 10 0,0
28.06.2020 10:00:00 20,1 13,8 20,1 20,6 15,5 6 3 11 6 W 20 25 0,0
28.06.2020 09:00:00 18,9 13,5 16,6 20,7 15,6 2 1 6 3 S 20 28 0,0
28.06.2020 08:00:00 16,3 13,8 15,3 20,8 15,6 2 1 8 5 SSE 18 0 0,0
28.06.2020 07:00:00 15,7 13,4 14,2 20,8 15,6 5 3 9 5 ESE 20 0 0,0
28.06.2020 06:00:00 15,5 13,2 12,0 20,9 15,6 3 2 9 5 ESE 20 0 0,0
28.06.2020 05:00:00 15,4 13,2 12,3 21,0 15,6 4 2 10 6 E 20 0 0,0
28.06.2020 04:00:00 16,2 13,7 11,1 21,0 15,5 7 4 10 5 ESE 20 0 0,0
28.06.2020 03:00:00 16,0 14,0 11,1 21,0 15,5 0 0 4 2 N 20 0 0,0
28.06.2020 02:00:00 16,9 14,4 13,6 21,0 15,5 4 2 6 4 SE 20 0 0,0
28.06.2020 01:00:00 17,2 14,5 13,5 20,9 15,5 2 1 6 3 SSE 20 0 0,0
28.06.2020 00:00:00 17,3 14,0 13,5 20,9 15,5 2 1 6 4 W 20 0 0,0
27.06.2020 23:00:00 17,8 13,9 13,7 20,8 15,5 0 0 9 5 N 20 0 0,0
27.06.2020 22:00:00 19,2 13,4 16,4 20,7 15,5 5 3 13 7 W 20 5 0,0
27.06.2020 21:00:00 21,4 13,6 19,8 20,5 15,5 9 5 21 11 W 20 46 0,0
27.06.2020 20:00:00 23,9 14,3 23,8 20,4 15,5 10 6 19 10 W 20 40 0,0
27.06.2020 19:00:00 23,9 12,5 24,8 20,3 15,4 11 6 26 14 W 20 21 0,0
27.06.2020 18:00:00 27,2 12,4 30,4 20,2 15,4 14 8 29 16 WSW 20 58 0,0
27.06.2020 17:00:00 25,2 12,1 28,0 20,2 15,4 17 9 32 17 W 20 31 0,0

tt = temperature
td = dewpoint
tt 5cm = temperature 5cm
tt -20cm = temperature -20cm
tt -100cm = temperature -100cm
ff = wind speed
fx = gusts
dd = wind direction
vv = visibility
sd = sunshine duration
rr = precipitation

Next stations